sensor_id;sensor_type;location;lat;lon;timestamp;P1;durP1;ratioP1;P2;durP2;ratioP2
31674;SDS011;18276;45.520;11.018;2023-04-03T00:00:53;1.42;;;0.90;;
31674;SDS011;18276;45.520;11.018;2023-04-03T00:03:21;1.08;;;0.98;;
31674;SDS011;18276;45.520;11.018;2023-04-03T00:05:49;1.25;;;0.88;;
31674;SDS011;18276;45.520;11.018;2023-04-03T00:08:15;1.92;;;1.15;;
31674;SDS011;18276;45.520;11.018;2023-04-03T00:10:43;1.50;;;1.20;;
31674;SDS011;18276;45.520;11.018;2023-04-03T00:13:10;1.60;;;1.10;;
31674;SDS011;18276;45.520;11.018;2023-04-03T00:15:37;0.93;;;0.82;;
31674;SDS011;18276;45.520;11.018;2023-04-03T00:18:05;1.38;;;0.82;;
31674;SDS011;18276;45.520;11.018;2023-04-03T00:20:32;1.10;;;1.00;;
31674;SDS011;18276;45.520;11.018;2023-04-03T00:23:01;2.45;;;1.20;;
31674;SDS011;18276;45.520;11.018;2023-04-03T00:25:28;1.05;;;0.95;;
31674;SDS011;18276;45.520;11.018;2023-04-03T00:27:55;1.48;;;1.00;;
31674;SDS011;18276;45.520;11.018;2023-04-03T00:30:22;0.85;;;0.80;;
31674;SDS011;18276;45.520;11.018;2023-04-03T00:32:50;1.65;;;1.00;;
31674;SDS011;18276;45.520;11.018;2023-04-03T00:35:19;1.08;;;0.90;;
31674;SDS011;18276;45.520;11.018;2023-04-03T00:37:47;0.82;;;0.80;;
31674;SDS011;18276;45.520;11.018;2023-04-03T00:40:17;0.77;;;0.77;;
31674;SDS011;18276;45.520;11.018;2023-04-03T00:42:45;2.35;;;1.15;;
31674;SDS011;18276;45.520;11.018;2023-04-03T00:48:02;0.77;;;0.70;;
31674;SDS011;18276;45.520;11.018;2023-04-03T00:50:33;3.15;;;1.00;;
31674;SDS011;18276;45.520;11.018;2023-04-03T00:53:04;2.30;;;1.02;;
31674;SDS011;18276;45.520;11.018;2023-04-03T00:55:34;1.20;;;0.80;;
31674;SDS011;18276;45.520;11.018;2023-04-03T00:58:03;4.10;;;1.00;;
31674;SDS011;18276;45.520;11.018;2023-04-03T01:00:30;2.75;;;0.73;;
31674;SDS011;18276;45.520;11.018;2023-04-03T01:02:57;1.27;;;0.90;;
31674;SDS011;18276;45.520;11.018;2023-04-03T01:05:25;1.27;;;0.65;;
31674;SDS011;18276;45.520;11.018;2023-04-03T01:07:53;0.80;;;0.80;;
31674;SDS011;18276;45.520;11.018;2023-04-03T01:10:20;1.40;;;0.70;;
31674;SDS011;18276;45.520;11.018;2023-04-03T01:12:49;1.00;;;0.90;;
31674;SDS011;18276;45.520;11.018;2023-04-03T01:15:21;0.88;;;0.70;;
31674;SDS011;18276;45.520;11.018;2023-04-03T01:17:53;1.05;;;0.75;;
31674;SDS011;18276;45.520;11.018;2023-04-03T01:28:10;1.02;;;0.65;;
31674;SDS011;18276;45.520;11.018;2023-04-03T01:33:23;1.00;;;0.77;;
31674;SDS011;18276;45.520;11.018;2023-04-03T01:35:50;1.35;;;0.70;;
31674;SDS011;18276;45.520;11.018;2023-04-03T01:38:18;0.85;;;0.60;;
31674;SDS011;18276;45.520;11.018;2023-04-03T01:40:45;1.70;;;0.60;;
31674;SDS011;18276;45.520;11.018;2023-04-03T01:43:12;0.70;;;0.60;;
31674;SDS011;18276;45.520;11.018;2023-04-03T01:45:39;1.33;;;0.80;;
31674;SDS011;18276;45.520;11.018;2023-04-03T01:48:06;0.80;;;0.70;;
31674;SDS011;18276;45.520;11.018;2023-04-03T01:50:33;3.22;;;0.60;;
31674;SDS011;18276;45.520;11.018;2023-04-03T01:53:01;0.85;;;0.63;;
31674;SDS011;18276;45.520;11.018;2023-04-03T01:55:28;1.25;;;0.47;;
31674;SDS011;18276;45.520;11.018;2023-04-03T01:57:55;0.80;;;0.70;;
31674;SDS011;18276;45.520;11.018;2023-04-03T02:00:22;0.40;;;0.40;;
31674;SDS011;18276;45.520;11.018;2023-04-03T02:02:49;0.68;;;0.60;;
31674;SDS011;18276;45.520;11.018;2023-04-03T02:05:16;0.60;;;0.40;;
31674;SDS011;18276;45.520;11.018;2023-04-03T02:07:44;1.52;;;0.60;;
31674;SDS011;18276;45.520;11.018;2023-04-03T02:10:11;1.42;;;0.73;;
31674;SDS011;18276;45.520;11.018;2023-04-03T02:12:38;0.93;;;0.77;;
31674;SDS011;18276;45.520;11.018;2023-04-03T02:15:05;0.85;;;0.80;;
31674;SDS011;18276;45.520;11.018;2023-04-03T02:17:33;1.60;;;0.70;;
31674;SDS011;18276;45.520;11.018;2023-04-03T02:20:02;2.78;;;0.82;;
31674;SDS011;18276;45.520;11.018;2023-04-03T02:22:29;1.60;;;0.60;;
31674;SDS011;18276;45.520;11.018;2023-04-03T02:24:57;0.68;;;0.60;;
31674;SDS011;18276;45.520;11.018;2023-04-03T02:27:24;4.60;;;0.73;;
31674;SDS011;18276;45.520;11.018;2023-04-03T02:29:51;1.13;;;0.60;;
31674;SDS011;18276;45.520;11.018;2023-04-03T02:32:18;0.68;;;0.50;;
31674;SDS011;18276;45.520;11.018;2023-04-03T02:34:46;1.00;;;0.55;;
31674;SDS011;18276;45.520;11.018;2023-04-03T02:37:13;1.13;;;0.85;;
31674;SDS011;18276;45.520;11.018;2023-04-03T02:39:43;1.02;;;0.70;;
31674;SDS011;18276;45.520;11.018;2023-04-03T02:42:10;2.45;;;0.65;;
31674;SDS011;18276;45.520;11.018;2023-04-03T02:44:37;1.23;;;0.70;;
31674;SDS011;18276;45.520;11.018;2023-04-03T02:47:05;1.33;;;0.60;;
31674;SDS011;18276;45.520;11.018;2023-04-03T02:49:32;0.70;;;0.63;;
31674;SDS011;18276;45.520;11.018;2023-04-03T02:51:59;2.22;;;0.70;;
31674;SDS011;18276;45.520;11.018;2023-04-03T02:54:26;0.82;;;0.60;;
31674;SDS011;18276;45.520;11.018;2023-04-03T02:57:00;0.98;;;0.70;;
31674;SDS011;18276;45.520;11.018;2023-04-03T02:59:27;1.13;;;0.50;;
31674;SDS011;18276;45.520;11.018;2023-04-03T03:01:55;3.35;;;0.90;;
31674;SDS011;18276;45.520;11.018;2023-04-03T03:04:22;0.77;;;0.55;;
31674;SDS011;18276;45.520;11.018;2023-04-03T03:06:49;3.25;;;0.70;;
31674;SDS011;18276;45.520;11.018;2023-04-03T03:09:17;1.17;;;0.63;;
31674;SDS011;18276;45.520;11.018;2023-04-03T03:11:44;3.40;;;0.75;;
31674;SDS011;18276;45.520;11.018;2023-04-03T03:14:11;0.60;;;0.60;;
31674;SDS011;18276;45.520;11.018;2023-04-03T03:16:38;3.53;;;0.80;;
31674;SDS011;18276;45.520;11.018;2023-04-03T03:19:05;0.80;;;0.60;;
31674;SDS011;18276;45.520;11.018;2023-04-03T03:21:33;1.92;;;0.70;;
31674;SDS011;18276;45.520;11.018;2023-04-03T03:24:00;2.38;;;0.70;;
31674;SDS011;18276;45.520;11.018;2023-04-03T03:26:28;2.33;;;0.70;;
31674;SDS011;18276;45.520;11.018;2023-04-03T03:28:55;2.00;;;0.63;;
31674;SDS011;18276;45.520;11.018;2023-04-03T03:31:22;2.42;;;1.27;;
31674;SDS011;18276;45.520;11.018;2023-04-03T03:33:49;1.45;;;0.93;;
31674;SDS011;18276;45.520;11.018;2023-04-03T03:36:16;2.15;;;0.70;;
31674;SDS011;18276;45.520;11.018;2023-04-03T03:38:43;0.73;;;0.73;;
31674;SDS011;18276;45.520;11.018;2023-04-03T03:41:10;1.52;;;0.63;;
31674;SDS011;18276;45.520;11.018;2023-04-03T03:43:37;1.42;;;1.00;;
31674;SDS011;18276;45.520;11.018;2023-04-03T03:46:06;1.20;;;0.93;;
31674;SDS011;18276;45.520;11.018;2023-04-03T03:48:33;1.17;;;0.80;;
31674;SDS011;18276;45.520;11.018;2023-04-03T03:51:00;1.73;;;1.02;;
31674;SDS011;18276;45.520;11.018;2023-04-03T03:53:31;1.30;;;0.75;;
31674;SDS011;18276;45.520;11.018;2023-04-03T03:56:03;3.25;;;1.10;;
31674;SDS011;18276;45.520;11.018;2023-04-03T03:58:31;1.23;;;0.90;;
31674;SDS011;18276;45.520;11.018;2023-04-03T04:01:02;1.15;;;0.80;;
31674;SDS011;18276;45.520;11.018;2023-04-03T04:03:34;1.50;;;0.80;;
31674;SDS011;18276;45.520;11.018;2023-04-03T04:06:02;0.88;;;0.70;;
31674;SDS011;18276;45.520;11.018;2023-04-03T04:08:29;1.38;;;0.80;;
31674;SDS011;18276;45.520;11.018;2023-04-03T04:10:56;2.17;;;0.93;;
31674;SDS011;18276;45.520;11.018;2023-04-03T04:13:23;1.85;;;0.80;;
31674;SDS011;18276;45.520;11.018;2023-04-03T04:15:51;2.58;;;1.00;;
31674;SDS011;18276;45.520;11.018;2023-04-03T04:18:18;2.50;;;0.90;;
31674;SDS011;18276;45.520;11.018;2023-04-03T04:20:48;1.70;;;1.00;;
31674;SDS011;18276;45.520;11.018;2023-04-03T04:23:17;1.50;;;0.98;;
31674;SDS011;18276;45.520;11.018;2023-04-03T04:25:46;1.60;;;1.00;;
31674;SDS011;18276;45.520;11.018;2023-04-03T04:28:15;2.50;;;1.10;;
31674;SDS011;18276;45.520;11.018;2023-04-03T04:30:42;0.85;;;0.82;;
31674;SDS011;18276;45.520;11.018;2023-04-03T04:33:12;2.55;;;0.90;;
31674;SDS011;18276;45.520;11.018;2023-04-03T04:35:42;1.40;;;0.90;;
31674;SDS011;18276;45.520;11.018;2023-04-03T04:38:10;1.38;;;0.88;;
31674;SDS011;18276;45.520;11.018;2023-04-03T04:40:37;2.30;;;1.08;;
31674;SDS011;18276;45.520;11.018;2023-04-03T04:43:05;5.95;;;1.48;;
31674;SDS011;18276;45.520;11.018;2023-04-03T04:45:33;2.03;;;1.10;;
31674;SDS011;18276;45.520;11.018;2023-04-03T04:48:00;2.38;;;1.20;;
31674;SDS011;18276;45.520;11.018;2023-04-03T04:50:27;4.38;;;1.50;;
31674;SDS011;18276;45.520;11.018;2023-04-03T04:52:54;5.65;;;2.00;;
31674;SDS011;18276;45.520;11.018;2023-04-03T04:55:21;5.25;;;1.77;;
31674;SDS011;18276;45.520;11.018;2023-04-03T04:57:49;5.10;;;1.33;;
31674;SDS011;18276;45.520;11.018;2023-04-03T05:00:16;5.68;;;1.65;;
31674;SDS011;18276;45.520;11.018;2023-04-03T05:02:44;4.80;;;1.40;;
31674;SDS011;18276;45.520;11.018;2023-04-03T05:05:11;6.40;;;2.78;;
31674;SDS011;18276;45.520;11.018;2023-04-03T05:07:39;2.85;;;1.35;;
31674;SDS011;18276;45.520;11.018;2023-04-03T05:10:07;7.13;;;1.70;;
31674;SDS011;18276;45.520;11.018;2023-04-03T05:12:35;2.80;;;1.95;;
31674;SDS011;18276;45.520;11.018;2023-04-03T05:15:03;3.38;;;1.33;;
31674;SDS011;18276;45.520;11.018;2023-04-03T05:17:32;2.92;;;1.00;;
31674;SDS011;18276;45.520;11.018;2023-04-03T05:19:59;4.22;;;1.30;;
31674;SDS011;18276;45.520;11.018;2023-04-03T05:22:27;2.92;;;1.45;;
31674;SDS011;18276;45.520;11.018;2023-04-03T05:25:00;6.75;;;1.80;;
31674;SDS011;18276;45.520;11.018;2023-04-03T05:27:27;5.50;;;1.70;;
31674;SDS011;18276;45.520;11.018;2023-04-03T05:29:56;6.07;;;1.42;;
31674;SDS011;18276;45.520;11.018;2023-04-03T05:32:24;4.50;;;1.80;;
31674;SDS011;18276;45.520;11.018;2023-04-03T05:35:05;6.40;;;1.55;;
31674;SDS011;18276;45.520;11.018;2023-04-03T05:37:34;5.18;;;1.95;;
31674;SDS011;18276;45.520;11.018;2023-04-03T05:40:02;7.28;;;1.90;;
31674;SDS011;18276;45.520;11.018;2023-04-03T05:42:31;5.38;;;1.92;;
31674;SDS011;18276;45.520;11.018;2023-04-03T05:44:58;7.50;;;2.05;;
31674;SDS011;18276;45.520;11.018;2023-04-03T05:47:26;7.70;;;2.17;;
31674;SDS011;18276;45.520;11.018;2023-04-03T05:49:53;7.20;;;1.90;;
31674;SDS011;18276;45.520;11.018;2023-04-03T05:52:21;14.65;;;2.85;;
31674;SDS011;18276;45.520;11.018;2023-04-03T05:54:54;8.50;;;2.03;;
31674;SDS011;18276;45.520;11.018;2023-04-03T05:57:25;10.40;;;1.90;;
31674;SDS011;18276;45.520;11.018;2023-04-03T06:02:21;9.95;;;2.42;;
31674;SDS011;18276;45.520;11.018;2023-04-03T06:04:50;7.22;;;2.58;;
31674;SDS011;18276;45.520;11.018;2023-04-03T06:07:19;14.27;;;2.60;;
31674;SDS011;18276;45.520;11.018;2023-04-03T06:09:53;7.88;;;2.38;;
31674;SDS011;18276;45.520;11.018;2023-04-03T06:12:22;8.20;;;2.53;;
31674;SDS011;18276;45.520;11.018;2023-04-03T17:47:16;8.30;;;3.75;;
31674;SDS011;18276;45.520;11.018;2023-04-03T17:49:43;12.68;;;5.47;;
31674;SDS011;18276;45.520;11.018;2023-04-03T17:52:10;12.13;;;5.40;;
31674;SDS011;18276;45.520;11.018;2023-04-03T17:54:37;6.22;;;3.85;;
31674;SDS011;18276;45.520;11.018;2023-04-03T17:57:04;7.85;;;3.25;;
31674;SDS011;18276;45.520;11.018;2023-04-03T17:59:31;6.05;;;4.70;;
31674;SDS011;18276;45.520;11.018;2023-04-03T18:01:58;10.35;;;4.88;;
31674;SDS011;18276;45.520;11.018;2023-04-03T18:04:25;9.73;;;4.18;;
31674;SDS011;18276;45.520;11.018;2023-04-03T18:06:54;9.15;;;3.72;;
31674;SDS011;18276;45.520;11.018;2023-04-03T18:09:23;8.57;;;2.80;;
31674;SDS011;18276;45.520;11.018;2023-04-03T18:11:54;8.33;;;2.77;;
31674;SDS011;18276;45.520;11.018;2023-04-03T18:14:23;4.60;;;2.40;;
31674;SDS011;18276;45.520;11.018;2023-04-03T18:16:52;9.23;;;4.45;;
31674;SDS011;18276;45.520;11.018;2023-04-03T18:19:22;27.77;;;12.98;;
31674;SDS011;18276;45.520;11.018;2023-04-03T18:21:51;11.20;;;4.93;;
31674;SDS011;18276;45.520;11.018;2023-04-03T18:24:22;11.63;;;5.45;;
31674;SDS011;18276;45.520;11.018;2023-04-03T18:26:55;6.68;;;3.95;;
31674;SDS011;18276;45.520;11.018;2023-04-03T18:29:27;8.48;;;3.88;;
31674;SDS011;18276;45.520;11.018;2023-04-03T18:31:56;4.97;;;2.80;;
31674;SDS011;18276;45.520;11.018;2023-04-03T18:34:26;4.22;;;2.40;;
31674;SDS011;18276;45.520;11.018;2023-04-03T18:36:53;8.27;;;2.20;;
31674;SDS011;18276;45.520;11.018;2023-04-03T18:39:20;6.53;;;2.20;;
31674;SDS011;18276;45.520;11.018;2023-04-03T18:41:50;5.15;;;2.72;;
31674;SDS011;18276;45.520;11.018;2023-04-03T18:44:18;5.90;;;2.92;;
31674;SDS011;18276;45.520;11.018;2023-04-03T18:46:48;5.03;;;3.17;;
31674;SDS011;18276;45.520;11.018;2023-04-03T18:49:15;6.70;;;2.40;;
31674;SDS011;18276;45.520;11.018;2023-04-03T18:51:43;6.47;;;2.80;;
31674;SDS011;18276;45.520;11.018;2023-04-03T18:54:11;6.00;;;2.33;;
31674;SDS011;18276;45.520;11.018;2023-04-03T18:56:38;8.05;;;3.08;;
31674;SDS011;18276;45.520;11.018;2023-04-03T18:59:05;5.13;;;2.20;;
31674;SDS011;18276;45.520;11.018;2023-04-03T19:01:32;9.02;;;2.50;;
31674;SDS011;18276;45.520;11.018;2023-04-03T19:04:00;7.10;;;3.05;;
31674;SDS011;18276;45.520;11.018;2023-04-03T19:06:27;5.85;;;2.30;;
31674;SDS011;18276;45.520;11.018;2023-04-03T23:49:28;7.75;;;3.90;;
31674;SDS011;18276;45.520;11.018;2023-04-03T23:51:55;15.20;;;5.03;;
31674;SDS011;18276;45.520;11.018;2023-04-03T23:54:22;10.88;;;3.88;;
31674;SDS011;18276;45.520;11.018;2023-04-03T23:56:49;12.02;;;3.00;;
31674;SDS011;18276;45.520;11.018;2023-04-03T23:59:16;13.70;;;4.60;;
